createdAt,value
2023-02-28T00:00:21.294Z,4.57
2023-02-28T00:02:47.818Z,4.50
2023-02-28T00:05:16.072Z,4.38
2023-02-28T00:07:42.600Z,3.95
2023-02-28T00:10:12.662Z,4.13
2023-02-28T00:12:38.933Z,3.95
2023-02-28T00:15:10.240Z,4.90
2023-02-28T00:17:37.016Z,3.80
2023-02-28T00:20:04.885Z,4.22
2023-02-28T00:22:31.189Z,5.43
2023-02-28T00:24:57.044Z,5.05
2023-02-28T00:27:23.268Z,5.32
2023-02-28T00:29:49.117Z,5.22
2023-02-28T00:32:15.444Z,4.50
2023-02-28T00:34:41.386Z,4.35
2023-02-28T00:37:09.619Z,3.88
2023-02-28T00:39:36.997Z,3.70
2023-02-28T00:42:03.699Z,4.00
2023-02-28T00:44:30.222Z,4.28
2023-02-28T00:46:56.804Z,3.72
2023-02-28T00:49:23.115Z,4.38
2023-02-28T00:51:49.360Z,4.25
2023-02-28T00:54:15.631Z,3.80
2023-02-28T00:56:41.527Z,3.45
2023-02-28T00:59:08.414Z,3.47
2023-02-28T01:01:34.872Z,3.30
2023-02-28T01:04:00.786Z,3.80
2023-02-28T01:06:26.805Z,3.35
2023-02-28T01:08:52.608Z,4.15
2023-02-28T01:11:21.774Z,3.33
2023-02-28T01:13:48.481Z,3.33
2023-02-28T01:16:14.476Z,3.67
2023-02-28T01:18:40.768Z,3.22
2023-02-28T01:21:15.886Z,3.55
2023-02-28T01:23:42.413Z,3.70
2023-02-28T01:26:20.529Z,3.67
2023-02-28T01:28:47.532Z,4.30
2023-02-28T01:31:13.497Z,3.55
2023-02-28T01:33:39.939Z,3.65
2023-02-28T01:36:18.947Z,4.47
2023-02-28T01:38:45.785Z,3.47
2023-02-28T01:41:24.566Z,3.97
2023-02-28T01:43:50.342Z,3.65
2023-02-28T01:46:16.544Z,3.45
2023-02-28T01:48:48.622Z,3.78
2023-02-28T01:51:23.029Z,3.85
2023-02-28T01:53:53.259Z,3.92
2023-02-28T01:56:24.825Z,3.25
2023-02-28T01:58:52.453Z,3.78
2023-02-28T02:01:23.540Z,3.88
2023-02-28T02:03:55.578Z,4.28
2023-02-28T02:06:44.449Z,3.80
2023-02-28T02:09:12.426Z,4.20
2023-02-28T02:11:42.928Z,3.60
2023-02-28T02:14:11.627Z,3.92
2023-02-28T02:17:06.199Z,3.70
2023-02-28T02:19:54.635Z,3.83
2023-02-28T02:22:46.507Z,4.00
2023-02-28T02:25:27.297Z,4.35
2023-02-28T02:27:55.938Z,3.47
2023-02-28T02:30:44.581Z,3.70
2023-02-28T02:33:47.587Z,3.72
2023-02-28T02:36:21.570Z,5.05
2023-02-28T02:38:53.935Z,3.58
2023-02-28T02:41:44.556Z,4.05
2023-02-28T02:44:39.031Z,3.72
2023-02-28T02:47:14.216Z,3.67
2023-02-28T02:49:43.763Z,3.63
2023-02-28T02:52:13.611Z,3.65
2023-02-28T02:54:43.922Z,3.88
2023-02-28T02:57:37.011Z,3.83
2023-02-28T03:00:08.208Z,3.88
2023-02-28T03:02:37.626Z,3.53
2023-02-28T03:05:13.255Z,3.70
2023-02-28T03:07:39.086Z,3.63
2023-02-28T03:10:34.055Z,3.45
2023-02-28T03:13:36.012Z,3.65
2023-02-28T03:16:20.645Z,4.05
2023-02-28T03:18:58.449Z,3.72
2023-02-28T03:21:24.155Z,3.80
2023-02-28T03:23:59.196Z,3.15
2023-02-28T03:26:27.981Z,3.50
2023-02-28T03:28:59.815Z,3.60
2023-02-28T03:31:45.135Z,3.22
2023-02-28T03:34:24.201Z,2.97
2023-02-28T03:36:56.453Z,3.10
2023-02-28T03:39:27.382Z,3.10
2023-02-28T03:42:01.072Z,3.10
2023-02-28T03:44:34.336Z,3.13
2023-02-28T03:47:18.090Z,3.50
2023-02-28T03:49:49.902Z,3.35
2023-02-28T03:52:18.832Z,3.70
2023-02-28T03:54:51.695Z,2.72
2023-02-28T03:57:40.376Z,3.70
2023-02-28T04:00:20.636Z,3.50
2023-02-28T04:02:46.493Z,3.20
2023-02-28T04:05:12.380Z,3.15
2023-02-28T04:07:38.261Z,3.63
2023-02-28T04:10:05.236Z,3.40
2023-02-28T04:12:34.275Z,3.65
2023-02-28T04:15:00.181Z,3.22
2023-02-28T04:17:26.208Z,3.92
2023-02-28T04:19:52.017Z,3.58
2023-02-28T04:22:18.062Z,3.10
2023-02-28T04:24:43.983Z,3.20
2023-02-28T04:27:10.250Z,3.15
2023-02-28T04:29:36.343Z,3.13
2023-02-28T04:32:03.149Z,3.50
2023-02-28T04:34:31.136Z,3.42
2023-02-28T04:37:11.939Z,3.20
2023-02-28T04:39:38.991Z,3.45
2023-02-28T04:42:04.993Z,3.22
2023-02-28T04:44:30.811Z,3.25
2023-02-28T04:46:56.601Z,3.30
2023-02-28T04:49:22.463Z,3.17
2023-02-28T04:51:50.208Z,3.72
2023-02-28T04:54:16.475Z,3.22
2023-02-28T04:56:42.433Z,3.28
2023-02-28T04:59:08.259Z,3.42
2023-02-28T05:01:35.159Z,3.83
2023-02-28T05:04:02.962Z,3.20
2023-02-28T05:06:31.619Z,3.50
2023-02-28T05:08:57.699Z,3.80
2023-02-28T05:11:29.978Z,4.80
2023-02-28T05:13:56.108Z,4.03
2023-02-28T05:16:22.458Z,3.78
2023-02-28T05:18:48.424Z,3.45
2023-02-28T05:21:25.581Z,3.58
2023-02-28T05:23:52.172Z,3.13
2023-02-28T05:26:18.909Z,3.47
2023-02-28T05:28:44.817Z,3.28
2023-02-28T05:31:14.299Z,4.00
2023-02-28T05:33:40.384Z,3.88
2023-02-28T05:36:06.787Z,3.30
2023-02-28T05:38:32.628Z,3.92
2023-02-28T05:40:59.067Z,3.10
2023-02-28T05:43:24.878Z,3.20
2023-02-28T05:45:50.722Z,3.50
2023-02-28T05:48:17.752Z,3.33
2023-02-28T05:50:45.115Z,3.40
2023-02-28T05:53:10.901Z,3.40
2023-02-28T05:55:37.805Z,3.70
2023-02-28T05:58:03.785Z,3.35
2023-02-28T06:00:29.778Z,3.30
2023-02-28T06:02:58.238Z,3.60
2023-02-28T06:05:24.767Z,3.65
2023-02-28T06:07:50.647Z,3.60
2023-02-28T06:10:16.578Z,3.30
2023-02-28T06:12:43.752Z,3.67
2023-02-28T06:15:17.028Z,3.28
2023-02-28T06:17:44.428Z,3.10
2023-02-28T06:20:12.992Z,3.17
2023-02-28T06:22:40.048Z,3.60
2023-02-28T06:25:07.083Z,3.38
2023-02-28T06:27:33.843Z,2.90
2023-02-28T06:29:59.743Z,3.47
2023-02-28T06:32:25.717Z,3.50
2023-02-28T06:34:51.586Z,3.40
2023-02-28T06:37:18.310Z,3.20
2023-02-28T06:39:44.620Z,3.58
2023-02-28T06:42:10.769Z,2.90
2023-02-28T06:44:36.690Z,3.13
2023-02-28T06:47:04.429Z,3.55
2023-02-28T06:49:32.165Z,3.80
2023-02-28T06:51:58.044Z,3.10
2023-02-28T06:54:24.332Z,3.70
2023-02-28T06:56:50.274Z,3.67
2023-02-28T06:59:17.137Z,3.42
2023-02-28T07:01:43.404Z,4.00
2023-02-28T07:04:09.541Z,4.30
2023-02-28T07:06:35.547Z,3.55
2023-02-28T07:09:01.631Z,3.47
2023-02-28T07:11:28.957Z,3.22
2023-02-28T07:13:58.493Z,3.35
2023-02-28T07:16:25.340Z,2.85
2023-02-28T07:18:53.470Z,3.00
2023-02-28T07:21:19.279Z,2.83
2023-02-28T07:23:45.145Z,2.88
2023-02-28T07:26:14.924Z,2.80
2023-02-28T07:28:46.803Z,3.05
2023-02-28T07:31:17.492Z,2.80
2023-02-28T07:33:43.664Z,2.80
2023-02-28T07:36:15.371Z,3.08
2023-02-28T07:38:48.713Z,3.15
2023-02-28T07:41:20.091Z,2.83
2023-02-28T07:43:46.213Z,2.80
2023-02-28T07:46:16.468Z,2.90
2023-02-28T07:48:43.130Z,2.83
2023-02-28T07:51:09.226Z,2.92
2023-02-28T07:53:35.179Z,2.90
2023-02-28T07:56:02.413Z,2.95
2023-02-28T07:58:29.672Z,2.28
2023-02-28T08:00:55.779Z,2.67
2023-02-28T08:03:23.874Z,2.80
2023-02-28T08:05:50.272Z,2.40
2023-02-28T08:08:17.839Z,2.83
2023-02-28T08:10:44.005Z,2.40
2023-02-28T08:13:09.844Z,2.63
2023-02-28T08:15:36.503Z,3.30
2023-02-28T08:18:02.826Z,2.92
2023-02-28T08:20:28.887Z,2.65
2023-02-28T08:22:54.747Z,2.60
2023-02-28T08:25:20.699Z,2.20
2023-02-28T08:27:46.518Z,2.50
2023-02-28T08:30:14.105Z,2.67
2023-02-28T08:32:41.177Z,2.63
2023-02-28T08:35:09.356Z,2.30
2023-02-28T08:37:35.636Z,2.90
2023-02-28T08:40:01.507Z,2.75
2023-02-28T08:42:27.421Z,3.08
2023-02-28T08:44:53.277Z,2.80
2023-02-28T08:47:19.817Z,2.67
2023-02-28T08:49:45.733Z,2.10
2023-02-28T08:52:11.557Z,3.42
2023-02-28T08:54:37.371Z,2.47
2023-02-28T08:57:03.820Z,2.75
2023-02-28T08:59:30.235Z,2.95
2023-02-28T09:01:56.210Z,2.63
2023-02-28T09:04:25.147Z,3.17
2023-02-28T09:06:51.558Z,3.20
2023-02-28T09:09:17.436Z,2.60
2023-02-28T09:11:43.220Z,2.97
2023-02-28T09:14:09.007Z,3.05
2023-02-28T09:16:35.483Z,2.20
2023-02-28T09:19:02.453Z,2.60
2023-02-28T09:21:29.101Z,2.38
2023-02-28T09:23:55.305Z,2.47
2023-02-28T09:26:26.635Z,2.50
2023-02-28T09:28:53.880Z,2.70
2023-02-28T09:31:23.470Z,2.42
2023-02-28T09:33:51.158Z,1.90
2023-02-28T09:36:17.874Z,2.00
2023-02-28T09:38:44.132Z,1.85
2023-02-28T09:41:23.223Z,1.90
2023-02-28T09:44:14.249Z,2.45
2023-02-28T09:46:47.232Z,2.90
2023-02-28T09:49:16.655Z,2.30
2023-02-28T09:51:42.808Z,2.10
2023-02-28T09:54:20.368Z,2.28
2023-02-28T09:57:21.750Z,2.20
2023-02-28T10:00:16.808Z,2.08
2023-02-28T10:02:58.580Z,2.22
2023-02-28T10:05:43.411Z,2.17
2023-02-28T10:08:26.289Z,2.33
2023-02-28T10:10:57.518Z,2.13
2023-02-28T10:13:40.031Z,2.13
2023-02-28T10:16:14.789Z,1.95
2023-02-28T10:18:47.724Z,2.22
2023-02-28T10:21:20.857Z,2.00
2023-02-28T10:23:48.782Z,2.15
2023-02-28T10:26:17.059Z,2.22
2023-02-28T10:28:43.743Z,2.08
2023-02-28T10:31:18.661Z,2.33
2023-02-28T10:33:45.203Z,1.88
2023-02-28T10:36:15.357Z,1.70
2023-02-28T10:38:41.299Z,1.73
2023-02-28T10:41:20.220Z,1.80
2023-02-28T10:43:46.241Z,1.42
2023-02-28T10:46:25.972Z,1.55
2023-02-28T10:49:05.618Z,1.48
2023-02-28T10:51:37.808Z,1.80
2023-02-28T10:54:05.243Z,1.52
2023-02-28T10:56:33.124Z,1.77
2023-02-28T10:59:02.791Z,1.60
2023-02-28T11:01:49.107Z,1.80
2023-02-28T11:04:32.526Z,1.40
2023-02-28T11:07:22.112Z,1.65
2023-02-28T11:09:51.799Z,1.67
2023-02-28T11:12:26.899Z,1.02
2023-02-28T11:14:57.608Z,1.30
2023-02-28T11:17:27.193Z,1.27
2023-02-28T11:20:01.808Z,1.48
2023-02-28T11:22:30.255Z,0.95
2023-02-28T11:25:02.756Z,1.33
2023-02-28T11:27:31.357Z,1.20
2023-02-28T11:30:01.252Z,1.58
2023-02-28T11:32:30.606Z,1.60
2023-02-28T11:35:11.764Z,1.58
2023-02-28T11:37:39.057Z,1.50
2023-02-28T11:40:14.282Z,1.15
2023-02-28T11:42:52.638Z,1.50
2023-02-28T11:45:37.471Z,0.90
2023-02-28T11:48:31.014Z,2.60
2023-02-28T11:51:20.609Z,1.27
2023-02-28T11:53:55.321Z,1.35
2023-02-28T11:56:44.208Z,1.50
2023-02-28T11:59:25.364Z,1.42
2023-02-28T12:02:07.339Z,1.17
2023-02-28T12:05:22.333Z,1.27
2023-02-28T12:08:16.055Z,1.10
2023-02-28T12:11:39.021Z,1.13
2023-02-28T12:14:48.534Z,1.10
2023-02-28T12:17:32.636Z,1.38
2023-02-28T12:20:23.526Z,1.20
2023-02-28T12:22:58.182Z,1.17
2023-02-28T12:25:48.466Z,1.30
2023-02-28T12:28:20.221Z,1.15
2023-02-28T12:31:01.708Z,1.05
2023-02-28T12:33:34.922Z,1.40
2023-02-28T12:36:10.276Z,1.42
2023-02-28T12:38:49.592Z,1.13
2023-02-28T12:41:22.520Z,1.45
2023-02-28T12:44:18.353Z,1.05
2023-02-28T12:46:58.545Z,1.63
2023-02-28T12:49:31.919Z,1.45
2023-02-28T12:52:00.940Z,1.20
2023-02-28T12:54:44.852Z,1.40
2023-02-28T12:57:18.960Z,1.30
2023-02-28T12:59:56.234Z,1.57
2023-02-28T13:02:44.604Z,1.30
2023-02-28T13:05:41.872Z,1.70
2023-02-28T13:08:36.509Z,1.50
2023-02-28T13:11:05.555Z,1.40
2023-02-28T13:13:33.557Z,1.40
2023-02-28T13:16:10.213Z,1.27
2023-02-28T13:18:45.442Z,1.73
2023-02-28T13:21:27.847Z,1.35
2023-02-28T13:23:57.201Z,1.20
2023-02-28T13:26:35.898Z,1.75
2023-02-28T13:29:20.984Z,1.50
2023-02-28T13:32:08.612Z,1.10
2023-02-28T13:34:36.283Z,1.50
2023-02-28T13:37:20.243Z,1.88
2023-02-28T13:39:48.548Z,1.25
2023-02-28T13:42:24.929Z,1.63
2023-02-28T13:45:05.700Z,1.65
2023-02-28T13:47:44.467Z,1.30
2023-02-28T13:50:31.851Z,1.35
2023-02-28T13:52:57.608Z,1.50
2023-02-28T13:55:26.891Z,3.30
2023-02-28T13:58:28.211Z,3.00
2023-02-28T14:01:17.150Z,2.17
2023-02-28T14:03:56.577Z,2.00
2023-02-28T14:06:30.942Z,2.47
2023-02-28T14:09:16.548Z,2.03
2023-02-28T14:11:43.880Z,2.33
2023-02-28T14:14:50.215Z,2.15
2023-02-28T14:17:17.510Z,2.10
2023-02-28T14:19:49.815Z,2.20
2023-02-28T14:22:34.436Z,2.83
2023-02-28T14:25:24.527Z,2.50
2023-02-28T14:28:26.080Z,2.78
2023-02-28T14:31:01.104Z,3.40
2023-02-28T14:33:46.036Z,2.88
2023-02-28T14:36:24.803Z,3.50
2023-02-28T14:38:53.980Z,3.20
2023-02-28T14:41:40.893Z,3.55
2023-02-28T14:44:23.557Z,2.63
2023-02-28T14:46:53.890Z,2.60
2023-02-28T14:49:45.776Z,2.55
2023-02-28T14:52:29.959Z,3.88
2023-02-28T14:55:06.091Z,3.15
2023-02-28T14:57:42.859Z,3.30
2023-02-28T15:00:30.001Z,2.65
2023-02-28T15:02:57.246Z,3.25
2023-02-28T15:05:34.768Z,4.88
2023-02-28T15:08:04.470Z,4.40
2023-02-28T15:10:31.336Z,3.65
2023-02-28T15:13:08.563Z,3.05
2023-02-28T15:15:46.348Z,3.05
2023-02-28T15:18:45.416Z,3.03
2023-02-28T15:21:24.564Z,5.07
2023-02-28T15:23:57.251Z,4.18
2023-02-28T15:26:30.336Z,4.28
2023-02-28T15:29:04.682Z,3.55
2023-02-28T15:31:56.056Z,2.90
2023-02-28T15:34:44.866Z,2.78
2023-02-28T15:37:32.841Z,3.17
2023-02-28T15:40:53.888Z,4.07
2023-02-28T15:43:26.124Z,2.97
2023-02-28T15:46:13.462Z,3.08
2023-02-28T15:48:54.168Z,3.53
2023-02-28T15:51:34.409Z,3.45
2023-02-28T15:54:04.580Z,3.17
2023-02-28T15:56:34.050Z,3.25
2023-02-28T15:59:06.051Z,2.92
2023-02-28T16:01:37.660Z,2.80
2023-02-28T16:04:06.601Z,3.50
2023-02-28T16:06:34.115Z,2.85
2023-02-28T16:09:00.088Z,3.35
2023-02-28T16:11:26.203Z,3.65
2023-02-28T16:13:53.252Z,3.22
2023-02-28T16:16:22.924Z,3.50
2023-02-28T16:18:49.086Z,3.55
2023-02-28T16:21:14.991Z,3.10
2023-02-28T16:23:41.863Z,3.58
2023-02-28T16:26:10.517Z,3.40
2023-02-28T16:28:38.759Z,3.33
2023-02-28T16:31:07.693Z,4.00
2023-02-28T16:33:34.607Z,4.82
2023-02-28T16:36:00.828Z,5.45
2023-02-28T16:38:27.561Z,5.55
2023-02-28T16:40:58.538Z,5.05
2023-02-28T16:43:26.544Z,4.05
2023-02-28T16:46:00.185Z,3.80
2023-02-28T16:48:27.107Z,4.50
2023-02-28T16:50:53.038Z,3.97
2023-02-28T16:53:18.981Z,4.22
2023-02-28T16:55:44.903Z,4.20
2023-02-28T16:58:15.648Z,3.60
2023-02-28T17:00:41.788Z,4.07
2023-02-28T17:03:32.619Z,4.05
2023-02-28T17:05:59.631Z,4.22
2023-02-28T17:08:25.776Z,3.92
2023-02-28T17:10:51.649Z,4.68
2023-02-28T17:13:17.587Z,4.00
2023-02-28T17:15:46.653Z,4.20
2023-02-28T17:18:21.532Z,3.92
2023-02-28T17:20:48.095Z,4.63
2023-02-28T17:23:14.206Z,4.00
2023-02-28T17:25:40.103Z,4.78
2023-02-28T17:28:06.060Z,4.28
2023-02-28T17:30:34.720Z,4.70
2023-02-28T17:33:00.677Z,5.60
2023-02-28T17:35:27.080Z,4.75
2023-02-28T17:37:53.244Z,7.15
2023-02-28T17:40:22.308Z,5.18
2023-02-28T17:42:48.503Z,4.63
2023-02-28T17:45:15.172Z,4.93
2023-02-28T17:47:44.453Z,3.88
2023-02-28T17:50:17.209Z,4.25
2023-02-28T17:52:43.104Z,5.00
2023-02-28T17:55:10.009Z,4.50
2023-02-28T17:57:35.919Z,4.60
2023-02-28T18:00:06.277Z,4.70
2023-02-28T18:02:32.868Z,5.45
2023-02-28T18:04:58.961Z,5.00
2023-02-28T18:07:26.222Z,4.68
2023-02-28T18:09:52.158Z,5.63
2023-02-28T18:12:18.201Z,4.70
2023-02-28T18:14:45.519Z,5.05
2023-02-28T18:17:12.644Z,5.03
2023-02-28T18:19:38.994Z,4.65
2023-02-28T18:22:07.692Z,5.10
2023-02-28T18:24:34.288Z,4.72
2023-02-28T18:27:00.122Z,5.95
2023-02-28T18:29:27.546Z,4.97
2023-02-28T18:31:55.000Z,5.35
2023-02-28T18:34:21.724Z,5.45
2023-02-28T18:36:50.252Z,5.60
2023-02-28T18:39:17.137Z,5.03
2023-02-28T18:41:43.058Z,4.95
2023-02-28T18:44:19.100Z,5.05
2023-02-28T18:46:46.342Z,4.82
2023-02-28T18:49:12.354Z,5.38
2023-02-28T18:51:38.335Z,4.93
2023-02-28T18:54:04.330Z,5.20
2023-02-28T18:56:30.476Z,6.10
2023-02-28T18:58:56.513Z,4.80
2023-02-28T19:01:27.885Z,4.82
2023-02-28T19:03:53.862Z,5.57
2023-02-28T19:06:19.913Z,4.55
2023-02-28T19:08:45.804Z,4.32
2023-02-28T19:11:14.796Z,5.50
2023-02-28T19:13:41.665Z,5.53
2023-02-28T19:16:08.884Z,5.72
2023-02-28T19:18:35.327Z,5.85
2023-02-28T19:21:01.900Z,5.10
2023-02-28T19:23:30.765Z,5.97
2023-02-28T19:25:56.665Z,5.25
2023-02-28T19:28:23.490Z,5.43
2023-02-28T19:30:52.224Z,5.80
2023-02-28T19:33:19.492Z,5.13
2023-02-28T19:35:46.029Z,5.47
2023-02-28T19:38:12.324Z,6.18
2023-02-28T19:40:38.812Z,5.82
2023-02-28T19:43:06.174Z,6.18
2023-02-28T19:45:33.220Z,6.65
2023-02-28T19:47:59.237Z,5.93
2023-02-28T19:50:25.321Z,5.97
2023-02-28T19:52:51.276Z,5.82
2023-02-28T19:55:17.560Z,6.18
2023-02-28T19:57:43.514Z,6.60
2023-02-28T20:00:13.380Z,5.30
2023-02-28T20:02:40.837Z,6.25
2023-02-28T20:05:07.734Z,5.82
2023-02-28T20:07:33.812Z,6.03
2023-02-28T20:10:00.876Z,6.15
2023-02-28T20:12:27.318Z,7.10
2023-02-28T20:14:57.032Z,8.32
2023-02-28T20:17:23.387Z,6.95
2023-02-28T20:19:49.259Z,6.18
2023-02-28T20:22:15.566Z,5.80
2023-02-28T20:24:41.435Z,6.10
2023-02-28T20:27:07.379Z,7.07
2023-02-28T20:29:33.918Z,5.97
2023-02-28T20:32:00.522Z,7.15
2023-02-28T20:34:26.645Z,6.60
2023-02-28T20:36:52.758Z,6.75
2023-02-28T20:39:18.680Z,6.13
2023-02-28T20:41:44.530Z,8.82
2023-02-28T20:44:12.799Z,5.88
2023-02-28T20:46:40.581Z,5.47
2023-02-28T20:49:06.880Z,5.95
2023-02-28T20:51:32.820Z,5.90
2023-02-28T20:53:58.644Z,5.80
2023-02-28T20:56:24.543Z,5.90
2023-02-28T20:58:52.519Z,6.13
2023-02-28T21:01:27.733Z,6.10
2023-02-28T21:04:02.517Z,6.20
2023-02-28T21:06:32.384Z,6.47
2023-02-28T21:08:58.710Z,5.88
2023-02-28T21:11:30.053Z,6.05
2023-02-28T21:13:59.466Z,6.35
2023-02-28T21:16:28.837Z,5.75
2023-02-28T21:18:55.572Z,6.25
2023-02-28T21:21:23.699Z,5.63
2023-02-28T21:23:51.015Z,6.35
2023-02-28T21:26:19.590Z,5.82
2023-02-28T21:28:50.206Z,5.75
2023-02-28T21:31:17.475Z,6.07
2023-02-28T21:33:44.653Z,5.40
2023-02-28T21:36:16.568Z,5.60
2023-02-28T21:38:44.412Z,5.93
2023-02-28T21:41:11.598Z,6.43
2023-02-28T21:43:38.056Z,5.20
2023-02-28T21:46:06.460Z,5.68
2023-02-28T21:48:33.310Z,5.50
2023-02-28T21:51:01.801Z,5.63
2023-02-28T21:53:32.548Z,5.32
2023-02-28T21:56:03.872Z,6.85
2023-02-28T21:58:29.924Z,7.05
2023-02-28T22:01:04.417Z,7.28
2023-02-28T22:03:30.290Z,6.53
2023-02-28T22:05:56.090Z,5.85
2023-02-28T22:08:21.998Z,6.35
2023-02-28T22:10:47.896Z,5.93
2023-02-28T22:13:13.750Z,5.45
2023-02-28T22:15:39.617Z,6.15
2023-02-28T22:18:05.874Z,5.72
2023-02-28T22:20:32.035Z,6.40
2023-02-28T22:22:58.124Z,6.15
2023-02-28T22:25:24.127Z,6.53
2023-02-28T22:27:49.982Z,6.07
2023-02-28T22:30:16.237Z,5.78
2023-02-28T22:32:42.086Z,6.18
2023-02-28T22:35:08.307Z,5.68
2023-02-28T22:37:34.136Z,6.32
2023-02-28T22:39:59.985Z,6.20
2023-02-28T22:42:25.835Z,6.35
2023-02-28T22:44:51.765Z,6.28
2023-02-28T22:47:17.786Z,6.30
2023-02-28T22:49:43.749Z,6.82
2023-02-28T22:52:09.806Z,6.63
2023-02-28T22:54:35.648Z,6.75
2023-02-28T22:57:01.554Z,7.13
2023-02-28T22:59:27.473Z,6.35
2023-02-28T23:01:53.340Z,6.88
2023-02-28T23:04:19.177Z,6.70
2023-02-28T23:06:45.265Z,6.95
2023-02-28T23:09:14.346Z,7.38
2023-02-28T23:11:42.782Z,7.38
2023-02-28T23:14:12.009Z,7.18
2023-02-28T23:16:42.443Z,6.90
2023-02-28T23:19:11.607Z,6.95
2023-02-28T23:21:38.644Z,6.22
2023-02-28T23:24:09.863Z,6.57
2023-02-28T23:26:37.863Z,6.65
2023-02-28T23:29:04.544Z,6.40
2023-02-28T23:31:30.839Z,6.88
2023-02-28T23:33:57.021Z,5.93
2023-02-28T23:36:23.619Z,6.25
2023-02-28T23:38:51.500Z,6.68
2023-02-28T23:41:18.378Z,6.43
2023-02-28T23:43:44.431Z,7.05
2023-02-28T23:46:11.311Z,6.55
2023-02-28T23:48:37.863Z,6.65
2023-02-28T23:51:09.877Z,6.97
2023-02-28T23:53:37.847Z,6.45
2023-02-28T23:56:05.170Z,7.43
2023-02-28T23:58:31.697Z,9.45
